Página principal
METAR-TAF:

METAR-TAF

Aeroportos :

Sint Eustatius, Antilhas Neerlandesas

latitude: 17-29N, longitude: 062-59W, altura: 38 m

Observação actual do tempo

O boletim foi feito há 59 minutos, às 09:55 UTC
Vento 11 kt de es-nordeste
Temperatura 28°C
Humidade 79%
Pressão 1014 hPa

METAR: TNCE 190955Z AUTO 06011KT //// // ///////// 28/24 Q1014 RE//

Hora: 06:54 (10:54 UTC)


TAF: em falta

Observações e previsões do tempo de mais de 4000 aeroportos (mensagens METAR e TAF).

As estações disponíveis são os pontos amarelos e vermelhos sobre o mapa.

Mova o rato sobre o mapa para ver o nome da estação.

Depois clique no ponto para visualizar as observações e previsões meteorológicas.

Para alterar o mapa : clique nos botões verdes com uma cruz preta para aumentar o zoom; no botão verde com uma pitada de zoom; ou nas setas verdes para mapas adjacentes.


METAR-TAF: